sensor_id;sensor_type;location;lat;lon;timestamp;temperature;humidity
70708;SHT30;58277;47.316;18.908;2023-09-19T00:02:02;22.59;67.76
70708;SHT30;58277;47.316;18.908;2023-09-19T00:04:31;22.56;67.94
70708;SHT30;58277;47.316;18.908;2023-09-19T00:06:55;22.52;68.42
70708;SHT30;58277;47.316;18.908;2023-09-19T00:09:18;22.53;68.30
70708;SHT30;58277;47.316;18.908;2023-09-19T00:11:41;22.60;68.00
70708;SHT30;58277;47.316;18.908;2023-09-19T00:14:04;22.53;68.31
70708;SHT30;58277;47.316;18.908;2023-09-19T00:16:30;22.49;68.54
70708;SHT30;58277;47.316;18.908;2023-09-19T00:18:52;22.46;68.67
70708;SHT30;58277;47.316;18.908;2023-09-19T00:21:15;22.38;69.09
70708;SHT30;58277;47.316;18.908;2023-09-19T00:23:38;22.43;69.05
70708;SHT30;58277;47.316;18.908;2023-09-19T00:26:03;22.46;68.82
70708;SHT30;58277;47.316;18.908;2023-09-19T00:28:27;22.46;69.05
70708;SHT30;58277;47.316;18.908;2023-09-19T00:30:50;22.45;69.06
70708;SHT30;58277;47.316;18.908;2023-09-19T00:33:12;22.57;68.64
70708;SHT30;58277;47.316;18.908;2023-09-19T00:35:47;22.60;68.73
70708;SHT30;58277;47.316;18.908;2023-09-19T00:38:09;22.67;68.63
70708;SHT30;58277;47.316;18.908;2023-09-19T00:40:33;22.76;68.28
70708;SHT30;58277;47.316;18.908;2023-09-19T00:42:58;22.83;67.95
70708;SHT30;58277;47.316;18.908;2023-09-19T00:45:24;22.87;67.96
70708;SHT30;58277;47.316;18.908;2023-09-19T00:47:48;22.97;67.40
70708;SHT30;58277;47.316;18.908;2023-09-19T00:50:13;23.03;67.30
70708;SHT30;58277;47.316;18.908;2023-09-19T00:52:38;23.06;67.01
70708;SHT30;58277;47.316;18.908;2023-09-19T00:55:01;23.07;67.05
70708;SHT30;58277;47.316;18.908;2023-09-19T00:57:24;23.01;67.23
70708;SHT30;58277;47.316;18.908;2023-09-19T00:59:49;23.10;66.70
70708;SHT30;58277;47.316;18.908;2023-09-19T01:02:12;23.17;66.41
70708;SHT30;58277;47.316;18.908;2023-09-19T01:04:37;23.17;66.20
70708;SHT30;58277;47.316;18.908;2023-09-19T01:07:00;23.18;66.13
70708;SHT30;58277;47.316;18.908;2023-09-19T01:09:23;23.20;66.38
70708;SHT30;58277;47.316;18.908;2023-09-19T01:11:47;23.22;65.98
70708;SHT30;58277;47.316;18.908;2023-09-19T01:17:01;23.25;65.81
70708;SHT30;58277;47.316;18.908;2023-09-19T01:20:06;23.24;65.80
70708;SHT30;58277;47.316;18.908;2023-09-19T01:30:27;23.12;65.99
70708;SHT30;58277;47.316;18.908;2023-09-19T01:32:54;22.91;67.05
70708;SHT30;58277;47.316;18.908;2023-09-19T01:35:18;22.90;67.09
70708;SHT30;58277;47.316;18.908;2023-09-19T01:37:41;22.89;67.28
70708;SHT30;58277;47.316;18.908;2023-09-19T01:40:10;22.87;67.74
70708;SHT30;58277;47.316;18.908;2023-09-19T01:43:09;22.86;67.62
70708;SHT30;58277;47.316;18.908;2023-09-19T01:45:50;22.77;67.71
70708;SHT30;58277;47.316;18.908;2023-09-19T01:50:42;22.73;68.01
70708;SHT30;58277;47.316;18.908;2023-09-19T01:53:27;22.73;67.99
70708;SHT30;58277;47.316;18.908;2023-09-19T01:55:54;22.69;68.10
70708;SHT30;58277;47.316;18.908;2023-09-19T02:01:00;22.59;67.98
70708;SHT30;58277;47.316;18.908;2023-09-19T02:03:24;22.57;68.51
70708;SHT30;58277;47.316;18.908;2023-09-19T02:05:51;22.49;68.62
70708;SHT30;58277;47.316;18.908;2023-09-19T02:08:17;22.41;68.95
70708;SHT30;58277;47.316;18.908;2023-09-19T02:10:41;22.39;69.20
70708;SHT30;58277;47.316;18.908;2023-09-19T02:13:04;22.42;68.75
70708;SHT30;58277;47.316;18.908;2023-09-19T02:15:27;22.39;68.93
70708;SHT30;58277;47.316;18.908;2023-09-19T02:17:50;22.35;69.09
70708;SHT30;58277;47.316;18.908;2023-09-19T02:20:13;22.31;69.13
70708;SHT30;58277;47.316;18.908;2023-09-19T02:22:37;22.26;69.36
70708;SHT30;58277;47.316;18.908;2023-09-19T02:25:01;22.24;69.64
70708;SHT30;58277;47.316;18.908;2023-09-19T02:27:24;22.24;69.75
70708;SHT30;58277;47.316;18.908;2023-09-19T02:29:47;22.26;69.66
70708;SHT30;58277;47.316;18.908;2023-09-19T02:32:12;22.26;69.70
70708;SHT30;58277;47.316;18.908;2023-09-19T02:34:35;22.28;69.85
70708;SHT30;58277;47.316;18.908;2023-09-19T02:36:58;22.29;69.79
70708;SHT30;58277;47.316;18.908;2023-09-19T02:39:22;22.41;69.35
70708;SHT30;58277;47.316;18.908;2023-09-19T02:41:47;22.51;68.90
70708;SHT30;58277;47.316;18.908;2023-09-19T02:44:10;22.51;68.60
70708;SHT30;58277;47.316;18.908;2023-09-19T02:46:33;22.55;68.81
70708;SHT30;58277;47.316;18.908;2023-09-19T02:48:58;22.49;68.96
70708;SHT30;58277;47.316;18.908;2023-09-19T02:51:21;22.53;69.04
70708;SHT30;58277;47.316;18.908;2023-09-19T02:53:44;22.51;68.98
70708;SHT30;58277;47.316;18.908;2023-09-19T02:56:06;22.48;68.97
70708;SHT30;58277;47.316;18.908;2023-09-19T02:58:29;22.41;69.22
70708;SHT30;58277;47.316;18.908;2023-09-19T03:00:53;22.52;68.74
70708;SHT30;58277;47.316;18.908;2023-09-19T03:03:17;22.64;68.38
70708;SHT30;58277;47.316;18.908;2023-09-19T03:05:40;22.73;68.04
70708;SHT30;58277;47.316;18.908;2023-09-19T03:08:03;22.80;67.55
70708;SHT30;58277;47.316;18.908;2023-09-19T03:10:27;22.83;67.73
70708;SHT30;58277;47.316;18.908;2023-09-19T03:12:52;22.93;67.39
70708;SHT30;58277;47.316;18.908;2023-09-19T03:15:15;22.87;67.48
70708;SHT30;58277;47.316;18.908;2023-09-19T03:17:43;22.86;67.74
70708;SHT30;58277;47.316;18.908;2023-09-19T03:20:08;22.90;67.49
70708;SHT30;58277;47.316;18.908;2023-09-19T03:22:31;22.83;67.75
70708;SHT30;58277;47.316;18.908;2023-09-19T03:24:55;22.69;68.21
70708;SHT30;58277;47.316;18.908;2023-09-19T03:27:18;22.67;68.41
70708;SHT30;58277;47.316;18.908;2023-09-19T03:29:42;22.66;68.38
70708;SHT30;58277;47.316;18.908;2023-09-19T03:32:05;22.67;68.46
70708;SHT30;58277;47.316;18.908;2023-09-19T03:34:28;22.73;68.37
70708;SHT30;58277;47.316;18.908;2023-09-19T03:36:52;22.70;68.50
70708;SHT30;58277;47.316;18.908;2023-09-19T03:39:15;22.56;68.42
70708;SHT30;58277;47.316;18.908;2023-09-19T03:41:38;22.51;68.63
70708;SHT30;58277;47.316;18.908;2023-09-19T03:44:01;22.49;68.61
70708;SHT30;58277;47.316;18.908;2023-09-19T03:46:24;22.53;68.60
70708;SHT30;58277;47.316;18.908;2023-09-19T03:48:47;22.49;68.65
70708;SHT30;58277;47.316;18.908;2023-09-19T03:51:10;22.53;68.86
70708;SHT30;58277;47.316;18.908;2023-09-19T03:53:33;22.53;68.64
70708;SHT30;58277;47.316;18.908;2023-09-19T03:55:55;22.56;68.45
70708;SHT30;58277;47.316;18.908;2023-09-19T03:58:18;22.52;68.78
70708;SHT30;58277;47.316;18.908;2023-09-19T04:00:41;22.52;68.58
70708;SHT30;58277;47.316;18.908;2023-09-19T04:03:04;22.53;68.67
70708;SHT30;58277;47.316;18.908;2023-09-19T04:05:29;22.39;68.73
70708;SHT30;58277;47.316;18.908;2023-09-19T04:07:51;22.38;69.06
70708;SHT30;58277;47.316;18.908;2023-09-19T04:10:15;22.36;69.30
70708;SHT30;58277;47.316;18.908;2023-09-19T04:12:38;22.36;69.13
70708;SHT30;58277;47.316;18.908;2023-09-19T04:15:01;22.38;69.19
70708;SHT30;58277;47.316;18.908;2023-09-19T04:17:25;22.46;68.97
70708;SHT30;58277;47.316;18.908;2023-09-19T04:19:48;22.51;68.77
70708;SHT30;58277;47.316;18.908;2023-09-19T04:22:11;22.49;68.70
70708;SHT30;58277;47.316;18.908;2023-09-19T04:24:35;22.51;68.72
70708;SHT30;58277;47.316;18.908;2023-09-19T04:26:58;22.51;68.81
70708;SHT30;58277;47.316;18.908;2023-09-19T04:29:21;22.45;69.10
70708;SHT30;58277;47.316;18.908;2023-09-19T04:31:44;22.48;69.00
70708;SHT30;58277;47.316;18.908;2023-09-19T04:34:08;22.43;69.26
70708;SHT30;58277;47.316;18.908;2023-09-19T04:36:32;22.41;69.49
70708;SHT30;58277;47.316;18.908;2023-09-19T04:38:57;22.43;69.57
70708;SHT30;58277;47.316;18.908;2023-09-19T04:41:20;22.45;69.66
70708;SHT30;58277;47.316;18.908;2023-09-19T04:43:44;22.38;69.81
70708;SHT30;58277;47.316;18.908;2023-09-19T04:46:07;22.43;69.82
70708;SHT30;58277;47.316;18.908;2023-09-19T04:48:30;22.38;69.95
70708;SHT30;58277;47.316;18.908;2023-09-19T04:50:54;22.35;70.12
70708;SHT30;58277;47.316;18.908;2023-09-19T04:53:17;22.41;69.82
70708;SHT30;58277;47.316;18.908;2023-09-19T04:56:03;22.62;69.06
70708;SHT30;58277;47.316;18.908;2023-09-19T04:58:47;22.70;68.50
70708;SHT30;58277;47.316;18.908;2023-09-19T05:01:09;22.72;68.67
70708;SHT30;58277;47.316;18.908;2023-09-19T05:03:34;22.67;68.66
70708;SHT30;58277;47.316;18.908;2023-09-19T05:05:57;22.52;68.94
70708;SHT30;58277;47.316;18.908;2023-09-19T05:08:20;22.41;68.31
70708;SHT30;58277;47.316;18.908;2023-09-19T05:10:44;22.25;68.29
70708;SHT30;58277;47.316;18.908;2023-09-19T05:13:07;22.11;68.47
70708;SHT30;58277;47.316;18.908;2023-09-19T05:15:30;22.11;68.37
70708;SHT30;58277;47.316;18.908;2023-09-19T05:17:53;22.05;68.08
70708;SHT30;58277;47.316;18.908;2023-09-19T05:20:20;22.00;68.34
70708;SHT30;58277;47.316;18.908;2023-09-19T05:23:02;21.98;67.99
70708;SHT30;58277;47.316;18.908;2023-09-19T05:25:25;22.00;68.18
70708;SHT30;58277;47.316;18.908;2023-09-19T05:27:53;22.26;67.54
70708;SHT30;58277;47.316;18.908;2023-09-19T05:30:16;22.42;66.83
70708;SHT30;58277;47.316;18.908;2023-09-19T05:32:39;22.38;66.80
70708;SHT30;58277;47.316;18.908;2023-09-19T05:35:02;22.29;66.81
70708;SHT30;58277;47.316;18.908;2023-09-19T05:37:25;22.16;67.04
70708;SHT30;58277;47.316;18.908;2023-09-19T05:39:49;22.01;67.36
70708;SHT30;58277;47.316;18.908;2023-09-19T05:42:12;21.91;67.75
70708;SHT30;58277;47.316;18.908;2023-09-19T05:44:35;21.78;67.94
70708;SHT30;58277;47.316;18.908;2023-09-19T05:46:58;21.60;68.16
70708;SHT30;58277;47.316;18.908;2023-09-19T05:49:21;21.49;68.80
70708;SHT30;58277;47.316;18.908;2023-09-19T05:51:44;21.38;69.27
70708;SHT30;58277;47.316;18.908;2023-09-19T05:54:08;21.19;69.64
70708;SHT30;58277;47.316;18.908;2023-09-19T05:56:32;21.06;70.10
70708;SHT30;58277;47.316;18.908;2023-09-19T05:58:55;20.98;70.70
70708;SHT30;58277;47.316;18.908;2023-09-19T06:01:19;20.90;70.84
70708;SHT30;58277;47.316;18.908;2023-09-19T06:03:42;20.90;70.84
70708;SHT30;58277;47.316;18.908;2023-09-19T06:06:05;20.65;71.76
70708;SHT30;58277;47.316;18.908;2023-09-19T06:08:29;20.65;71.63
70708;SHT30;58277;47.316;18.908;2023-09-19T06:10:54;20.58;72.10
70708;SHT30;58277;47.316;18.908;2023-09-19T06:13:17;20.44;72.69
70708;SHT30;58277;47.316;18.908;2023-09-19T06:15:41;20.47;72.68
70708;SHT30;58277;47.316;18.908;2023-09-19T06:18:04;20.44;72.84
70708;SHT30;58277;47.316;18.908;2023-09-19T06:20:28;20.36;73.20
70708;SHT30;58277;47.316;18.908;2023-09-19T06:22:52;20.34;73.18
70708;SHT30;58277;47.316;18.908;2023-09-19T06:25:16;20.32;73.29
70708;SHT30;58277;47.316;18.908;2023-09-19T06:27:42;20.37;73.31
70708;SHT30;58277;47.316;18.908;2023-09-19T06:30:07;20.29;74.27
70708;SHT30;58277;47.316;18.908;2023-09-19T06:32:30;20.23;75.24
70708;SHT30;58277;47.316;18.908;2023-09-19T06:34:53;20.15;76.27
70708;SHT30;58277;47.316;18.908;2023-09-19T06:37:21;20.09;77.50
70708;SHT30;58277;47.316;18.908;2023-09-19T06:39:44;19.92;78.19
70708;SHT30;58277;47.316;18.908;2023-09-19T06:42:07;19.77;78.84
70708;SHT30;58277;47.316;18.908;2023-09-19T06:44:31;19.75;79.48
70708;SHT30;58277;47.316;18.908;2023-09-19T06:46:54;19.61;79.98
70708;SHT30;58277;47.316;18.908;2023-09-19T06:49:17;19.54;80.60
70708;SHT30;58277;47.316;18.908;2023-09-19T06:51:42;19.50;81.19
70708;SHT30;58277;47.316;18.908;2023-09-19T06:54:05;19.55;80.85
70708;SHT30;58277;47.316;18.908;2023-09-19T06:56:28;19.49;81.67
70708;SHT30;58277;47.316;18.908;2023-09-19T06:58:51;19.51;82.54
70708;SHT30;58277;47.316;18.908;2023-09-19T07:01:15;19.55;81.85
70708;SHT30;58277;47.316;18.908;2023-09-19T07:03:41;19.68;81.89
70708;SHT30;58277;47.316;18.908;2023-09-19T07:06:08;19.65;81.83
70708;SHT30;58277;47.316;18.908;2023-09-19T07:08:31;19.60;82.01
70708;SHT30;58277;47.316;18.908;2023-09-19T07:10:56;19.55;82.59
70708;SHT30;58277;47.316;18.908;2023-09-19T07:13:19;19.62;82.40
70708;SHT30;58277;47.316;18.908;2023-09-19T07:15:42;19.55;82.45
70708;SHT30;58277;47.316;18.908;2023-09-19T07:18:09;19.58;82.70
70708;SHT30;58277;47.316;18.908;2023-09-19T07:20:36;19.65;81.51
70708;SHT30;58277;47.316;18.908;2023-09-19T07:22:59;19.64;82.22
70708;SHT30;58277;47.316;18.908;2023-09-19T07:25:23;19.74;82.17
70708;SHT30;58277;47.316;18.908;2023-09-19T07:27:47;19.78;82.03
70708;SHT30;58277;47.316;18.908;2023-09-19T07:30:10;19.83;81.88
70708;SHT30;58277;47.316;18.908;2023-09-19T07:32:34;19.92;81.42
70708;SHT30;58277;47.316;18.908;2023-09-19T07:35:02;19.93;81.91
70708;SHT30;58277;47.316;18.908;2023-09-19T07:37:26;19.98;81.06
70708;SHT30;58277;47.316;18.908;2023-09-19T07:39:49;20.00;81.39
70708;SHT30;58277;47.316;18.908;2023-09-19T07:42:13;20.06;80.68
70708;SHT30;58277;47.316;18.908;2023-09-19T07:44:40;20.08;81.34
70708;SHT30;58277;47.316;18.908;2023-09-19T07:47:03;20.20;80.81
70708;SHT30;58277;47.316;18.908;2023-09-19T07:49:26;20.26;80.45
70708;SHT30;58277;47.316;18.908;2023-09-19T07:51:49;20.44;80.55
70708;SHT30;58277;47.316;18.908;2023-09-19T07:54:12;20.60;80.31
70708;SHT30;58277;47.316;18.908;2023-09-19T07:56:35;20.83;79.20
70708;SHT30;58277;47.316;18.908;2023-09-19T07:58:58;20.91;78.99
70708;SHT30;58277;47.316;18.908;2023-09-19T08:01:25;21.06;78.12
70708;SHT30;58277;47.316;18.908;2023-09-19T08:03:50;21.15;77.83
70708;SHT30;58277;47.316;18.908;2023-09-19T08:06:14;21.16;78.00
70708;SHT30;58277;47.316;18.908;2023-09-19T08:08:37;21.22;77.65
70708;SHT30;58277;47.316;18.908;2023-09-19T08:11:01;21.19;77.69
70708;SHT30;58277;47.316;18.908;2023-09-19T08:13:25;21.09;77.83
70708;SHT30;58277;47.316;18.908;2023-09-19T08:15:50;21.03;76.80
70708;SHT30;58277;47.316;18.908;2023-09-19T08:18:15;20.70;77.21
70708;SHT30;58277;47.316;18.908;2023-09-19T08:20:41;20.65;78.17
70708;SHT30;58277;47.316;18.908;2023-09-19T08:23:09;20.60;78.58
70708;SHT30;58277;47.316;18.908;2023-09-19T08:25:32;20.51;78.66
70708;SHT30;58277;47.316;18.908;2023-09-19T08:27:55;20.44;79.23
70708;SHT30;58277;47.316;18.908;2023-09-19T08:30:21;20.27;79.39
70708;SHT30;58277;47.316;18.908;2023-09-19T08:33:00;20.29;79.14
70708;SHT30;58277;47.316;18.908;2023-09-19T08:35:23;20.22;79.82
70708;SHT30;58277;47.316;18.908;2023-09-19T08:37:46;20.19;80.12
70708;SHT30;58277;47.316;18.908;2023-09-19T08:40:09;20.19;80.24
70708;SHT30;58277;47.316;18.908;2023-09-19T08:42:53;20.26;79.92
70708;SHT30;58277;47.316;18.908;2023-09-19T08:45:17;20.26;80.66
70708;SHT30;58277;47.316;18.908;2023-09-19T08:47:46;20.32;80.67
70708;SHT30;58277;47.316;18.908;2023-09-19T08:50:27;20.41;80.14
70708;SHT30;58277;47.316;18.908;2023-09-19T08:52:52;20.53;80.08
70708;SHT30;58277;47.316;18.908;2023-09-19T08:55:18;20.68;79.18
70708;SHT30;58277;47.316;18.908;2023-09-19T08:57:44;20.74;79.42
70708;SHT30;58277;47.316;18.908;2023-09-19T09:00:12;20.88;79.08
70708;SHT30;58277;47.316;18.908;2023-09-19T09:02:40;20.99;78.52
70708;SHT30;58277;47.316;18.908;2023-09-19T09:05:04;20.99;78.67
70708;SHT30;58277;47.316;18.908;2023-09-19T09:07:29;20.94;79.55
70708;SHT30;58277;47.316;18.908;2023-09-19T09:09:52;20.87;80.21
70708;SHT30;58277;47.316;18.908;2023-09-19T09:12:14;20.88;80.55
70708;SHT30;58277;47.316;18.908;2023-09-19T09:14:47;20.95;79.48
70708;SHT30;58277;47.316;18.908;2023-09-19T09:17:11;20.98;80.11
70708;SHT30;58277;47.316;18.908;2023-09-19T09:19:34;21.11;79.02
70708;SHT30;58277;47.316;18.908;2023-09-19T09:22:10;21.25;79.75
70708;SHT30;58277;47.316;18.908;2023-09-19T09:24:33;21.56;79.29
70708;SHT30;58277;47.316;18.908;2023-09-19T09:26:57;21.66;77.59
70708;SHT30;58277;47.316;18.908;2023-09-19T09:29:50;21.88;78.58
70708;SHT30;58277;47.316;18.908;2023-09-19T09:34:49;21.90;77.49
70708;SHT30;58277;47.316;18.908;2023-09-19T09:37:16;21.95;77.41
70708;SHT30;58277;47.316;18.908;2023-09-19T09:39:49;22.01;77.53
70708;SHT30;58277;47.316;18.908;2023-09-19T09:45:16;22.21;77.57
70708;SHT30;58277;47.316;18.908;2023-09-19T09:47:43;22.32;76.42
70708;SHT30;58277;47.316;18.908;2023-09-19T09:50:12;22.38;77.01
70708;SHT30;58277;47.316;18.908;2023-09-19T09:52:46;22.56;75.99
70708;SHT30;58277;47.316;18.908;2023-09-19T09:55:10;22.56;75.04
70708;SHT30;58277;47.316;18.908;2023-09-19T09:57:33;22.79;74.73
70708;SHT30;58277;47.316;18.908;2023-09-19T09:59:59;22.89;74.38
70708;SHT30;58277;47.316;18.908;2023-09-19T10:02:41;22.79;73.49
70708;SHT30;58277;47.316;18.908;2023-09-19T10:05:14;22.89;74.60
70708;SHT30;58277;47.316;18.908;2023-09-19T10:07:44;22.99;75.16
70708;SHT30;58277;47.316;18.908;2023-09-19T10:10:36;23.03;75.15
70708;SHT30;58277;47.316;18.908;2023-09-19T10:13:11;23.00;74.79
70708;SHT30;58277;47.316;18.908;2023-09-19T10:15:37;22.99;74.26
70708;SHT30;58277;47.316;18.908;2023-09-19T10:18:07;23.14;73.84
70708;SHT30;58277;47.316;18.908;2023-09-19T10:20:41;23.31;71.77
70708;SHT30;58277;47.316;18.908;2023-09-19T10:23:09;23.18;71.40
70708;SHT30;58277;47.316;18.908;2023-09-19T10:25:40;23.22;72.03
70708;SHT30;58277;47.316;18.908;2023-09-19T10:28:08;23.22;72.28
70708;SHT30;58277;47.316;18.908;2023-09-19T10:30:37;23.21;73.02
70708;SHT30;58277;47.316;18.908;2023-09-19T10:33:03;23.22;71.88
70708;SHT30;58277;47.316;18.908;2023-09-19T10:35:27;23.20;71.02
70708;SHT30;58277;47.316;18.908;2023-09-19T10:37:51;23.18;71.16
70708;SHT30;58277;47.316;18.908;2023-09-19T10:40:20;23.06;72.09
70708;SHT30;58277;47.316;18.908;2023-09-19T10:42:49;22.84;71.93
70708;SHT30;58277;47.316;18.908;2023-09-19T10:45:16;22.91;71.78
70708;SHT30;58277;47.316;18.908;2023-09-19T10:47:41;23.06;71.65
70708;SHT30;58277;47.316;18.908;2023-09-19T10:50:06;23.08;71.15
70708;SHT30;58277;47.316;18.908;2023-09-19T10:52:30;23.10;71.85
70708;SHT30;58277;47.316;18.908;2023-09-19T10:54:56;23.31;70.67
70708;SHT30;58277;47.316;18.908;2023-09-19T10:57:22;23.63;70.70
70708;SHT30;58277;47.316;18.908;2023-09-19T11:00:08;24.04;69.29
70708;SHT30;58277;47.316;18.908;2023-09-19T11:05:40;24.48;68.25
70708;SHT30;58277;47.316;18.908;2023-09-19T11:08:03;24.54;68.32
70708;SHT30;58277;47.316;18.908;2023-09-19T11:10:46;24.68;67.16
70708;SHT30;58277;47.316;18.908;2023-09-19T11:13:30;24.65;65.87
70708;SHT30;58277;47.316;18.908;2023-09-19T11:26:48;24.04;63.43
70708;SHT30;58277;47.316;18.908;2023-09-19T11:29:30;24.02;65.12
70708;SHT30;58277;47.316;18.908;2023-09-19T11:31:53;24.13;64.90
70708;SHT30;58277;47.316;18.908;2023-09-19T11:37:00;24.25;63.42
70708;SHT30;58277;47.316;18.908;2023-09-19T11:39:26;24.51;63.52
70708;SHT30;58277;47.316;18.908;2023-09-19T11:41:49;24.79;62.44
70708;SHT30;58277;47.316;18.908;2023-09-19T11:49:13;24.93;62.29
70708;SHT30;58277;47.316;18.908;2023-09-19T11:51:41;24.86;62.21
70708;SHT30;58277;47.316;18.908;2023-09-19T11:54:11;24.67;63.15
70708;SHT30;58277;47.316;18.908;2023-09-19T11:56:43;24.55;63.41
70708;SHT30;58277;47.316;18.908;2023-09-19T11:59:10;24.45;63.63
70708;SHT30;58277;47.316;18.908;2023-09-19T12:02:06;24.57;62.07
70708;SHT30;58277;47.316;18.908;2023-09-19T12:04:42;24.64;61.69
70708;SHT30;58277;47.316;18.908;2023-09-19T12:07:07;24.79;61.34
70708;SHT30;58277;47.316;18.908;2023-09-19T12:09:34;24.78;60.83
70708;SHT30;58277;47.316;18.908;2023-09-19T12:11:59;24.92;60.54
70708;SHT30;58277;47.316;18.908;2023-09-19T12:14:26;25.00;60.90
70708;SHT30;58277;47.316;18.908;2023-09-19T12:16:54;24.82;60.93
70708;SHT30;58277;47.316;18.908;2023-09-19T12:19:19;24.99;60.72
70708;SHT30;58277;47.316;18.908;2023-09-19T12:21:56;25.09;61.21
70708;SHT30;58277;47.316;18.908;2023-09-19T12:24:22;25.27;60.83
70708;SHT30;58277;47.316;18.908;2023-09-19T12:26:46;25.23;59.67
70708;SHT30;58277;47.316;18.908;2023-09-19T12:29:19;25.33;60.29
70708;SHT30;58277;47.316;18.908;2023-09-19T12:31:56;25.53;59.71
70708;SHT30;58277;47.316;18.908;2023-09-19T12:34:28;25.64;59.16
70708;SHT30;58277;47.316;18.908;2023-09-19T12:37:06;25.58;57.93
70708;SHT30;58277;47.316;18.908;2023-09-19T12:39:34;25.57;58.71
70708;SHT30;58277;47.316;18.908;2023-09-19T12:41:58;25.58;59.51
70708;SHT30;58277;47.316;18.908;2023-09-19T12:44:21;25.36;60.08
70708;SHT30;58277;47.316;18.908;2023-09-19T12:46:47;25.60;59.39
70708;SHT30;58277;47.316;18.908;2023-09-19T12:49:19;25.58;58.39
70708;SHT30;58277;47.316;18.908;2023-09-19T12:51:42;25.54;58.72
70708;SHT30;58277;47.316;18.908;2023-09-19T12:54:06;25.57;58.54
70708;SHT30;58277;47.316;18.908;2023-09-19T12:56:39;25.68;58.83
70708;SHT30;58277;47.316;18.908;2023-09-19T12:59:03;25.67;58.07
70708;SHT30;58277;47.316;18.908;2023-09-19T13:01:27;25.55;57.66
70708;SHT30;58277;47.316;18.908;2023-09-19T13:04:13;25.36;57.22
70708;SHT30;58277;47.316;18.908;2023-09-19T13:06:47;25.38;57.43
70708;SHT30;58277;47.316;18.908;2023-09-19T13:09:12;25.36;57.67
70708;SHT30;58277;47.316;18.908;2023-09-19T13:11:37;25.37;57.53
70708;SHT30;58277;47.316;18.908;2023-09-19T13:14:21;25.12;57.66
70708;SHT30;58277;47.316;18.908;2023-09-19T13:17:12;24.99;57.78
70708;SHT30;58277;47.316;18.908;2023-09-19T13:19:47;25.09;58.59
70708;SHT30;58277;47.316;18.908;2023-09-19T13:22:41;24.86;58.44
70708;SHT30;58277;47.316;18.908;2023-09-19T13:25:07;24.72;57.74
70708;SHT30;58277;47.316;18.908;2023-09-19T13:27:30;24.78;58.77
70708;SHT30;58277;47.316;18.908;2023-09-19T13:29:53;24.79;57.95
70708;SHT30;58277;47.316;18.908;2023-09-19T13:32:16;24.90;57.67
70708;SHT30;58277;47.316;18.908;2023-09-19T13:34:38;24.98;58.61
70708;SHT30;58277;47.316;18.908;2023-09-19T13:37:01;25.13;57.98
70708;SHT30;58277;47.316;18.908;2023-09-19T13:39:24;25.37;56.65
70708;SHT30;58277;47.316;18.908;2023-09-19T13:41:47;25.61;57.29
70708;SHT30;58277;47.316;18.908;2023-09-19T13:44:10;25.67;55.62
70708;SHT30;58277;47.316;18.908;2023-09-19T13:46:33;25.60;56.03
70708;SHT30;58277;47.316;18.908;2023-09-19T13:48:57;25.67;56.30
70708;SHT30;58277;47.316;18.908;2023-09-19T13:51:21;25.60;56.25
70708;SHT30;58277;47.316;18.908;2023-09-19T13:53:48;25.57;55.86
70708;SHT30;58277;47.316;18.908;2023-09-19T13:56:11;25.54;56.53
70708;SHT30;58277;47.316;18.908;2023-09-19T13:58:33;25.47;57.16
70708;SHT30;58277;47.316;18.908;2023-09-19T14:00:56;25.43;57.24
70708;SHT30;58277;47.316;18.908;2023-09-19T14:03:21;25.30;57.74
70708;SHT30;58277;47.316;18.908;2023-09-19T14:05:44;25.28;58.11
70708;SHT30;58277;47.316;18.908;2023-09-19T14:08:07;25.28;57.48
70708;SHT30;58277;47.316;18.908;2023-09-19T14:10:30;25.12;57.47
70708;SHT30;58277;47.316;18.908;2023-09-19T14:12:54;25.02;57.88
70708;SHT30;58277;47.316;18.908;2023-09-19T14:15:16;25.02;57.50
70708;SHT30;58277;47.316;18.908;2023-09-19T14:17:40;24.89;58.37
70708;SHT30;58277;47.316;18.908;2023-09-19T14:20:08;24.79;57.46
70708;SHT30;58277;47.316;18.908;2023-09-19T14:22:33;24.68;58.34
70708;SHT30;58277;47.316;18.908;2023-09-19T14:24:55;24.42;59.53
70708;SHT30;58277;47.316;18.908;2023-09-19T14:27:19;24.38;58.81
70708;SHT30;58277;47.316;18.908;2023-09-19T14:29:42;24.20;59.63
70708;SHT30;58277;47.316;18.908;2023-09-19T14:32:05;24.04;60.81
70708;SHT30;58277;47.316;18.908;2023-09-19T14:34:27;23.97;60.73
70708;SHT30;58277;47.316;18.908;2023-09-19T14:36:50;23.82;60.46
70708;SHT30;58277;47.316;18.908;2023-09-19T14:39:13;23.73;60.61
70708;SHT30;58277;47.316;18.908;2023-09-19T14:41:35;23.66;61.06
70708;SHT30;58277;47.316;18.908;2023-09-19T14:43:58;23.59;61.36
70708;SHT30;58277;47.316;18.908;2023-09-19T14:46:21;23.59;61.77
70708;SHT30;58277;47.316;18.908;2023-09-19T14:48:46;23.48;62.13
70708;SHT30;58277;47.316;18.908;2023-09-19T14:51:09;23.38;62.04
70708;SHT30;58277;47.316;18.908;2023-09-19T14:53:35;23.31;62.60
70708;SHT30;58277;47.316;18.908;2023-09-19T14:56:04;23.38;62.42
70708;SHT30;58277;47.316;18.908;2023-09-19T14:58:27;23.45;62.48
70708;SHT30;58277;47.316;18.908;2023-09-19T15:00:52;23.47;62.93
70708;SHT30;58277;47.316;18.908;2023-09-19T15:03:15;23.54;63.07
70708;SHT30;58277;47.316;18.908;2023-09-19T15:05:38;23.62;62.88
70708;SHT30;58277;47.316;18.908;2023-09-19T15:08:01;23.66;62.19
70708;SHT30;58277;47.316;18.908;2023-09-19T15:10:25;23.70;62.07
70708;SHT30;58277;47.316;18.908;2023-09-19T15:12:48;23.70;60.81
70708;SHT30;58277;47.316;18.908;2023-09-19T15:15:11;23.73;60.50
70708;SHT30;58277;47.316;18.908;2023-09-19T15:17:36;23.75;59.89
70708;SHT30;58277;47.316;18.908;2023-09-19T15:19:59;23.72;60.92
70708;SHT30;58277;47.316;18.908;2023-09-19T15:22:21;23.70;60.82
70708;SHT30;58277;47.316;18.908;2023-09-19T15:24:45;23.68;60.61
70708;SHT30;58277;47.316;18.908;2023-09-19T15:27:07;23.61;60.75
70708;SHT30;58277;47.316;18.908;2023-09-19T15:29:30;23.62;60.99
70708;SHT30;58277;47.316;18.908;2023-09-19T15:31:55;23.56;60.63
70708;SHT30;58277;47.316;18.908;2023-09-19T15:34:21;23.54;61.00
70708;SHT30;58277;47.316;18.908;2023-09-19T15:37:04;23.51;61.37
70708;SHT30;58277;47.316;18.908;2023-09-19T15:39:47;23.49;61.25
70708;SHT30;58277;47.316;18.908;2023-09-19T15:42:10;23.47;61.34
70708;SHT30;58277;47.316;18.908;2023-09-19T15:44:33;23.47;61.42
70708;SHT30;58277;47.316;18.908;2023-09-19T15:46:56;23.49;61.50
70708;SHT30;58277;47.316;18.908;2023-09-19T15:49:19;23.49;61.48
70708;SHT30;58277;47.316;18.908;2023-09-19T15:51:43;23.48;61.70